sensor_id;sensor_type;location;lat;lon;timestamp;pressure;altitude;pressure_sealevel;temperature;humidity
31761;BME280;18335;51.486;7.562;2023-08-31T00:00:08;99475.69;;;13.74;100.00
31761;BME280;18335;51.486;7.562;2023-08-31T00:02:38;99475.16;;;13.98;100.00
31761;BME280;18335;51.486;7.562;2023-08-31T00:05:07;99477.41;;;13.81;100.00
31761;BME280;18335;51.486;7.562;2023-08-31T00:07:34;99466.22;;;13.83;100.00
31761;BME280;18335;51.486;7.562;2023-08-31T00:10:01;99471.53;;;13.84;100.00
31761;BME280;18335;51.486;7.562;2023-08-31T00:12:34;99464.78;;;13.87;100.00
31761;BME280;18335;51.486;7.562;2023-08-31T00:15:01;99459.94;;;13.96;100.00
31761;BME280;18335;51.486;7.562;2023-08-31T00:17:30;99460.97;;;13.81;100.00
31761;BME280;18335;51.486;7.562;2023-08-31T00:19:57;99461.63;;;13.90;100.00
31761;BME280;18335;51.486;7.562;2023-08-31T00:22:25;99466.41;;;13.75;100.00
31761;BME280;18335;51.486;7.562;2023-08-31T00:24:51;99464.16;;;13.85;100.00
31761;BME280;18335;51.486;7.562;2023-08-31T00:27:18;99464.72;;;13.74;100.00
31761;BME280;18335;51.486;7.562;2023-08-31T00:29:47;99466.47;;;13.88;100.00
31761;BME280;18335;51.486;7.562;2023-08-31T00:32:16;99459.31;;;13.94;100.00
31761;BME280;18335;51.486;7.562;2023-08-31T00:34:44;99458.50;;;14.00;100.00
31761;BME280;18335;51.486;7.562;2023-08-31T00:37:11;99456.06;;;13.77;100.00
31761;BME280;18335;51.486;7.562;2023-08-31T00:39:39;99461.81;;;13.82;100.00
31761;BME280;18335;51.486;7.562;2023-08-31T00:42:07;99464.72;;;13.74;100.00
31761;BME280;18335;51.486;7.562;2023-08-31T00:44:34;99455.94;;;13.98;100.00
31761;BME280;18335;51.486;7.562;2023-08-31T00:47:01;99453.19;;;13.98;100.00
31761;BME280;18335;51.486;7.562;2023-08-31T00:49:28;99455.13;;;14.04;100.00
31761;BME280;18335;51.486;7.562;2023-08-31T00:51:55;99462.31;;;14.05;100.00
31761;BME280;18335;51.486;7.562;2023-08-31T00:54:23;99467.16;;;14.03;100.00
31761;BME280;18335;51.486;7.562;2023-08-31T00:56:53;99463.16;;;14.19;100.00
31761;BME280;18335;51.486;7.562;2023-08-31T00:59:20;99468.66;;;14.12;100.00
31761;BME280;18335;51.486;7.562;2023-08-31T01:01:50;99461.25;;;14.06;100.00
31761;BME280;18335;51.486;7.562;2023-08-31T01:04:21;99462.75;;;14.22;100.00
31761;BME280;18335;51.486;7.562;2023-08-31T01:06:56;99465.69;;;14.07;100.00
31761;BME280;18335;51.486;7.562;2023-08-31T01:09:34;99457.03;;;14.10;100.00
31761;BME280;18335;51.486;7.562;2023-08-31T01:12:07;99461.69;;;14.03;100.00
31761;BME280;18335;51.486;7.562;2023-08-31T01:14:38;99463.56;;;14.03;100.00
31761;BME280;18335;51.486;7.562;2023-08-31T01:17:08;99462.97;;;14.20;100.00
31761;BME280;18335;51.486;7.562;2023-08-31T01:19:45;99472.81;;;13.95;100.00
31761;BME280;18335;51.486;7.562;2023-08-31T01:22:18;99467.31;;;13.95;100.00
31761;BME280;18335;51.486;7.562;2023-08-31T01:24:49;99472.31;;;13.72;100.00
31761;BME280;18335;51.486;7.562;2023-08-31T01:27:17;99463.25;;;13.78;100.00
31761;BME280;18335;51.486;7.562;2023-08-31T01:29:44;99472.97;;;13.80;100.00
31761;BME280;18335;51.486;7.562;2023-08-31T01:32:11;99471.56;;;13.50;100.00
31761;BME280;18335;51.486;7.562;2023-08-31T01:34:38;99473.97;;;13.66;100.00
31761;BME280;18335;51.486;7.562;2023-08-31T01:37:10;99477.34;;;13.62;100.00
31761;BME280;18335;51.486;7.562;2023-08-31T01:39:41;99472.84;;;13.54;100.00
31761;BME280;18335;51.486;7.562;2023-08-31T01:42:16;99475.16;;;13.51;100.00
31761;BME280;18335;51.486;7.562;2023-08-31T01:44:45;99480.41;;;13.46;100.00
31761;BME280;18335;51.486;7.562;2023-08-31T01:47:15;99476.91;;;13.24;100.00
31761;BME280;18335;51.486;7.562;2023-08-31T01:49:42;99480.03;;;13.21;100.00
31761;BME280;18335;51.486;7.562;2023-08-31T01:52:09;99482.59;;;13.22;100.00
31761;BME280;18335;51.486;7.562;2023-08-31T01:54:36;99484.25;;;13.23;100.00
31761;BME280;18335;51.486;7.562;2023-08-31T01:57:04;99481.34;;;13.25;100.00
31761;BME280;18335;51.486;7.562;2023-08-31T01:59:33;99481.78;;;13.28;100.00
31761;BME280;18335;51.486;7.562;2023-08-31T02:02:00;99479.06;;;13.28;100.00
31761;BME280;18335;51.486;7.562;2023-08-31T02:04:27;99484.84;;;13.12;100.00
31761;BME280;18335;51.486;7.562;2023-08-31T02:06:56;99477.06;;;13.16;100.00
31761;BME280;18335;51.486;7.562;2023-08-31T02:09:23;99480.44;;;13.18;100.00
31761;BME280;18335;51.486;7.562;2023-08-31T02:11:51;99487.56;;;13.12;100.00
31761;BME280;18335;51.486;7.562;2023-08-31T02:14:18;99485.06;;;13.17;100.00
31761;BME280;18335;51.486;7.562;2023-08-31T02:16:46;99486.38;;;13.21;100.00
31761;BME280;18335;51.486;7.562;2023-08-31T02:19:13;99484.56;;;13.07;100.00
31761;BME280;18335;51.486;7.562;2023-08-31T02:21:40;99483.88;;;13.26;100.00
31761;BME280;18335;51.486;7.562;2023-08-31T02:24:07;99496.69;;;13.19;100.00
31761;BME280;18335;51.486;7.562;2023-08-31T02:26:35;99492.25;;;13.18;100.00
31761;BME280;18335;51.486;7.562;2023-08-31T02:29:02;99496.03;;;13.17;100.00
31761;BME280;18335;51.486;7.562;2023-08-31T02:31:29;99486.78;;;13.18;100.00
31761;BME280;18335;51.486;7.562;2023-08-31T02:33:57;99495.63;;;13.20;100.00
31761;BME280;18335;51.486;7.562;2023-08-31T02:36:25;99490.94;;;13.14;100.00
31761;BME280;18335;51.486;7.562;2023-08-31T02:38:52;99496.03;;;13.17;100.00
31761;BME280;18335;51.486;7.562;2023-08-31T02:41:18;99489.69;;;12.89;100.00
31761;BME280;18335;51.486;7.562;2023-08-31T02:43:46;99493.56;;;13.01;100.00
31761;BME280;18335;51.486;7.562;2023-08-31T02:46:13;99500.72;;;12.74;100.00
31761;BME280;18335;51.486;7.562;2023-08-31T02:48:39;99500.59;;;12.83;100.00
31761;BME280;18335;51.486;7.562;2023-08-31T02:51:08;99500.50;;;12.97;100.00
31761;BME280;18335;51.486;7.562;2023-08-31T02:53:35;99499.50;;;12.77;100.00
31761;BME280;18335;51.486;7.562;2023-08-31T02:56:02;99497.28;;;12.87;100.00
31761;BME280;18335;51.486;7.562;2023-08-31T02:58:30;99498.78;;;12.96;100.00
31761;BME280;18335;51.486;7.562;2023-08-31T03:01:06;99484.94;;;12.76;100.00
31761;BME280;18335;51.486;7.562;2023-08-31T03:03:33;99495.16;;;12.89;100.00
31761;BME280;18335;51.486;7.562;2023-08-31T03:06:00;99497.44;;;12.86;100.00
31761;BME280;18335;51.486;7.562;2023-08-31T03:08:28;99500.03;;;12.94;100.00
31761;BME280;18335;51.486;7.562;2023-08-31T03:10:56;99490.38;;;12.70;100.00
31761;BME280;18335;51.486;7.562;2023-08-31T03:13:23;99505.34;;;12.74;100.00
31761;BME280;18335;51.486;7.562;2023-08-31T03:15:50;99488.81;;;12.61;100.00
31761;BME280;18335;51.486;7.562;2023-08-31T03:18:17;99488.94;;;12.74;100.00
31761;BME280;18335;51.486;7.562;2023-08-31T03:20:43;99484.88;;;12.70;100.00
31761;BME280;18335;51.486;7.562;2023-08-31T03:23:10;99492.53;;;12.74;100.00
31761;BME280;18335;51.486;7.562;2023-08-31T03:25:38;99491.38;;;12.62;100.00
31761;BME280;18335;51.486;7.562;2023-08-31T03:28:06;99494.72;;;12.64;100.00
31761;BME280;18335;51.486;7.562;2023-08-31T03:30:34;99495.44;;;12.73;100.00
31761;BME280;18335;51.486;7.562;2023-08-31T03:33:01;99492.16;;;12.56;100.00
31761;BME280;18335;51.486;7.562;2023-08-31T03:35:27;99501.38;;;12.55;100.00
31761;BME280;18335;51.486;7.562;2023-08-31T03:37:57;99504.25;;;12.47;100.00
31761;BME280;18335;51.486;7.562;2023-08-31T03:40:24;99501.06;;;12.65;100.00
31761;BME280;18335;51.486;7.562;2023-08-31T03:42:52;99499.34;;;12.64;100.00
31761;BME280;18335;51.486;7.562;2023-08-31T03:45:19;99506.38;;;12.45;100.00
31761;BME280;18335;51.486;7.562;2023-08-31T03:47:46;99500.28;;;12.71;100.00
31761;BME280;18335;51.486;7.562;2023-08-31T03:50:13;99499.66;;;12.75;100.00
31761;BME280;18335;51.486;7.562;2023-08-31T03:52:39;99502.78;;;12.45;100.00
31761;BME280;18335;51.486;7.562;2023-08-31T03:55:06;99502.88;;;12.37;100.00
31761;BME280;18335;51.486;7.562;2023-08-31T03:57:34;99502.50;;;12.40;100.00
31761;BME280;18335;51.486;7.562;2023-08-31T04:00:12;99504.59;;;12.59;100.00
31761;BME280;18335;51.486;7.562;2023-08-31T04:02:42;99509.81;;;12.54;100.00
31761;BME280;18335;51.486;7.562;2023-08-31T04:05:11;99510.19;;;12.30;100.00
31761;BME280;18335;51.486;7.562;2023-08-31T04:07:42;99511.22;;;12.50;100.00
31761;BME280;18335;51.486;7.562;2023-08-31T04:10:09;99518.09;;;12.39;100.00
31761;BME280;18335;51.486;7.562;2023-08-31T04:12:36;99527.72;;;12.35;100.00
31761;BME280;18335;51.486;7.562;2023-08-31T04:15:03;99524.97;;;12.35;100.00
31761;BME280;18335;51.486;7.562;2023-08-31T04:17:31;99529.81;;;12.33;100.00
31761;BME280;18335;51.486;7.562;2023-08-31T04:19:58;99535.06;;;12.35;100.00
31761;BME280;18335;51.486;7.562;2023-08-31T04:22:25;99534.50;;;12.39;100.00
31761;BME280;18335;51.486;7.562;2023-08-31T04:24:52;99536.09;;;12.34;100.00
31761;BME280;18335;51.486;7.562;2023-08-31T04:27:19;99532.41;;;12.41;100.00
31761;BME280;18335;51.486;7.562;2023-08-31T04:29:46;99538.34;;;12.45;100.00
31761;BME280;18335;51.486;7.562;2023-08-31T04:32:13;99531.88;;;12.31;100.00
31761;BME280;18335;51.486;7.562;2023-08-31T04:34:42;99527.97;;;12.40;100.00
31761;BME280;18335;51.486;7.562;2023-08-31T04:37:08;99531.16;;;12.65;100.00
31761;BME280;18335;51.486;7.562;2023-08-31T04:39:35;99527.97;;;12.61;100.00
31761;BME280;18335;51.486;7.562;2023-08-31T04:42:02;99536.13;;;12.55;100.00
31761;BME280;18335;51.486;7.562;2023-08-31T04:44:29;99544.00;;;12.64;100.00
31761;BME280;18335;51.486;7.562;2023-08-31T04:46:55;99543.34;;;12.62;100.00
31761;BME280;18335;51.486;7.562;2023-08-31T04:49:22;99547.78;;;12.63;100.00
31761;BME280;18335;51.486;7.562;2023-08-31T04:51:50;99546.03;;;12.77;100.00
31761;BME280;18335;51.486;7.562;2023-08-31T04:54:17;99545.50;;;12.67;100.00
31761;BME280;18335;51.486;7.562;2023-08-31T04:56:43;99542.50;;;12.83;100.00
31761;BME280;18335;51.486;7.562;2023-08-31T04:59:10;99540.94;;;12.74;100.00
31761;BME280;18335;51.486;7.562;2023-08-31T05:01:37;99540.31;;;12.72;100.00
31761;BME280;18335;51.486;7.562;2023-08-31T05:04:04;99543.16;;;12.64;100.00
31761;BME280;18335;51.486;7.562;2023-08-31T05:06:31;99544.16;;;12.56;100.00
31761;BME280;18335;51.486;7.562;2023-08-31T05:09:00;99548.63;;;12.64;100.00
31761;BME280;18335;51.486;7.562;2023-08-31T05:11:27;99551.19;;;12.65;100.00
31761;BME280;18335;51.486;7.562;2023-08-31T05:13:53;99561.34;;;12.71;100.00
31761;BME280;18335;51.486;7.562;2023-08-31T05:16:20;99562.91;;;12.81;100.00
31761;BME280;18335;51.486;7.562;2023-08-31T05:18:48;99568.44;;;12.87;100.00
31761;BME280;18335;51.486;7.562;2023-08-31T05:21:15;99578.72;;;12.85;100.00
31761;BME280;18335;51.486;7.562;2023-08-31T05:23:41;99583.88;;;12.95;100.00
31761;BME280;18335;51.486;7.562;2023-08-31T05:26:09;99578.81;;;12.92;100.00
31761;BME280;18335;51.486;7.562;2023-08-31T05:28:36;99582.47;;;12.99;100.00
31761;BME280;18335;51.486;7.562;2023-08-31T05:31:03;99587.00;;;12.92;100.00
31761;BME280;18335;51.486;7.562;2023-08-31T05:33:30;99587.72;;;13.00;100.00
31761;BME280;18335;51.486;7.562;2023-08-31T05:36:00;99578.47;;;13.22;100.00
31761;BME280;18335;51.486;7.562;2023-08-31T05:38:29;99588.91;;;13.12;100.00
31761;BME280;18335;51.486;7.562;2023-08-31T05:41:03;99594.75;;;13.30;100.00
31761;BME280;18335;51.486;7.562;2023-08-31T05:43:33;99596.09;;;13.41;100.00
31761;BME280;18335;51.486;7.562;2023-08-31T05:46:00;99595.81;;;13.08;100.00
31761;BME280;18335;51.486;7.562;2023-08-31T05:48:28;99591.81;;;13.32;100.00
31761;BME280;18335;51.486;7.562;2023-08-31T05:50:55;99599.97;;;13.47;100.00
31761;BME280;18335;51.486;7.562;2023-08-31T05:53:21;99606.22;;;13.41;100.00
31761;BME280;18335;51.486;7.562;2023-08-31T05:55:48;99610.31;;;13.51;100.00
31761;BME280;18335;51.486;7.562;2023-08-31T05:58:15;99607.28;;;13.67;100.00
31761;BME280;18335;51.486;7.562;2023-08-31T06:00:44;99613.94;;;13.58;100.00
31761;BME280;18335;51.486;7.562;2023-08-31T06:03:10;99614.47;;;13.75;100.00
31761;BME280;18335;51.486;7.562;2023-08-31T06:05:37;99618.63;;;13.64;100.00
31761;BME280;18335;51.486;7.562;2023-08-31T06:08:05;99617.63;;;13.72;100.00
31761;BME280;18335;51.486;7.562;2023-08-31T06:10:32;99625.78;;;13.65;100.00
31761;BME280;18335;51.486;7.562;2023-08-31T06:12:58;99624.31;;;13.97;100.00
31761;BME280;18335;51.486;7.562;2023-08-31T06:15:25;99629.28;;;13.80;100.00
31761;BME280;18335;51.486;7.562;2023-08-31T06:17:53;99623.25;;;13.98;100.00
31761;BME280;18335;51.486;7.562;2023-08-31T06:20:20;99620.03;;;14.29;100.00
31761;BME280;18335;51.486;7.562;2023-08-31T06:22:47;99616.84;;;14.25;100.00
31761;BME280;18335;51.486;7.562;2023-08-31T06:25:15;99621.16;;;14.34;100.00
31761;BME280;18335;51.486;7.562;2023-08-31T06:27:44;99609.69;;;14.24;100.00
31761;BME280;18335;51.486;7.562;2023-08-31T06:30:11;99613.81;;;14.42;100.00
31761;BME280;18335;51.486;7.562;2023-08-31T06:32:42;99611.47;;;14.38;100.00
31761;BME280;18335;51.486;7.562;2023-08-31T06:35:11;99617.81;;;14.46;100.00
31761;BME280;18335;51.486;7.562;2023-08-31T06:37:38;99612.31;;;14.46;100.00
31761;BME280;18335;51.486;7.562;2023-08-31T06:40:06;99608.31;;;14.42;100.00
31761;BME280;18335;51.486;7.562;2023-08-31T06:42:34;99613.91;;;14.74;100.00
31761;BME280;18335;51.486;7.562;2023-08-31T06:45:02;99607.75;;;14.66;100.00
31761;BME280;18335;51.486;7.562;2023-08-31T06:47:29;99609.75;;;15.11;100.00
31761;BME280;18335;51.486;7.562;2023-08-31T06:49:56;99616.69;;;14.94;100.00
31761;BME280;18335;51.486;7.562;2023-08-31T06:52:25;99618.75;;;14.72;100.00
31761;BME280;18335;51.486;7.562;2023-08-31T06:54:53;99624.59;;;14.50;100.00
31761;BME280;18335;51.486;7.562;2023-08-31T06:57:23;99617.44;;;14.62;100.00
31761;BME280;18335;51.486;7.562;2023-08-31T06:59:50;99632.66;;;14.64;100.00
31761;BME280;18335;51.486;7.562;2023-08-31T07:02:16;99624.44;;;14.64;100.00
31761;BME280;18335;51.486;7.562;2023-08-31T07:04:44;99629.31;;;14.82;100.00
31761;BME280;18335;51.486;7.562;2023-08-31T07:07:11;99619.44;;;14.94;100.00
31761;BME280;18335;51.486;7.562;2023-08-31T07:09:42;99626.00;;;14.93;100.00
31761;BME280;18335;51.486;7.562;2023-08-31T07:12:09;99626.66;;;15.08;100.00
31761;BME280;18335;51.486;7.562;2023-08-31T07:14:36;99630.25;;;15.02;100.00
31761;BME280;18335;51.486;7.562;2023-08-31T07:17:03;99625.34;;;14.98;100.00
31761;BME280;18335;51.486;7.562;2023-08-31T07:19:29;99621.56;;;15.05;100.00
31761;BME280;18335;51.486;7.562;2023-08-31T07:21:57;99632.78;;;15.36;100.00
31761;BME280;18335;51.486;7.562;2023-08-31T07:24:25;99621.78;;;15.30;100.00
31761;BME280;18335;51.486;7.562;2023-08-31T07:26:53;99616.31;;;15.43;100.00
31761;BME280;18335;51.486;7.562;2023-08-31T07:29:19;99623.09;;;15.54;100.00
31761;BME280;18335;51.486;7.562;2023-08-31T07:31:46;99623.50;;;15.44;100.00
31761;BME280;18335;51.486;7.562;2023-08-31T07:34:13;99628.16;;;15.37;100.00
31761;BME280;18335;51.486;7.562;2023-08-31T07:36:40;99619.06;;;15.43;100.00
31761;BME280;18335;51.486;7.562;2023-08-31T07:39:07;99624.38;;;15.58;100.00
31761;BME280;18335;51.486;7.562;2023-08-31T07:41:34;99621.38;;;15.85;100.00
31761;BME280;18335;51.486;7.562;2023-08-31T07:44:02;99631.03;;;16.14;100.00
31761;BME280;18335;51.486;7.562;2023-08-31T07:46:29;99627.47;;;16.00;100.00
31761;BME280;18335;51.486;7.562;2023-08-31T07:48:56;99625.84;;;15.80;100.00
31761;BME280;18335;51.486;7.562;2023-08-31T07:51:23;99626.84;;;15.92;100.00
31761;BME280;18335;51.486;7.562;2023-08-31T07:53:51;99625.09;;;16.11;100.00
31761;BME280;18335;51.486;7.562;2023-08-31T07:56:18;99629.44;;;16.57;100.00
31761;BME280;18335;51.486;7.562;2023-08-31T07:58:44;99634.53;;;16.54;100.00
31761;BME280;18335;51.486;7.562;2023-08-31T08:01:12;99639.28;;;16.21;100.00
31761;BME280;18335;51.486;7.562;2023-08-31T08:03:39;99633.84;;;16.58;100.00
31761;BME280;18335;51.486;7.562;2023-08-31T08:06:06;99636.13;;;16.75;100.00
31761;BME280;18335;51.486;7.562;2023-08-31T08:08:34;99641.31;;;16.89;100.00
31761;BME280;18335;51.486;7.562;2023-08-31T08:11:00;99648.97;;;17.50;100.00
31761;BME280;18335;51.486;7.562;2023-08-31T08:13:28;99645.78;;;17.22;100.00
31761;BME280;18335;51.486;7.562;2023-08-31T08:15:55;99646.59;;;16.91;100.00
31761;BME280;18335;51.486;7.562;2023-08-31T08:18:23;99644.06;;;17.52;100.00
31761;BME280;18335;51.486;7.562;2023-08-31T08:20:50;99644.38;;;16.75;100.00
31761;BME280;18335;51.486;7.562;2023-08-31T08:23:17;99646.84;;;17.21;100.00
31761;BME280;18335;51.486;7.562;2023-08-31T08:25:44;99654.13;;;16.77;100.00
31761;BME280;18335;51.486;7.562;2023-08-31T08:28:11;99642.59;;;17.56;100.00
31761;BME280;18335;51.486;7.562;2023-08-31T08:30:38;99651.22;;;16.66;100.00
31761;BME280;18335;51.486;7.562;2023-08-31T08:33:04;99661.59;;;17.64;100.00
31761;BME280;18335;51.486;7.562;2023-08-31T08:35:32;99643.25;;;17.20;100.00
31761;BME280;18335;51.486;7.562;2023-08-31T08:37:59;99649.56;;;17.27;100.00
31761;BME280;18335;51.486;7.562;2023-08-31T08:40:26;99652.31;;;17.27;100.00
31761;BME280;18335;51.486;7.562;2023-08-31T08:42:53;99647.13;;;17.68;100.00
31761;BME280;18335;51.486;7.562;2023-08-31T08:45:20;99644.75;;;17.16;100.00
31761;BME280;18335;51.486;7.562;2023-08-31T08:47:49;99650.94;;;17.11;100.00
31761;BME280;18335;51.486;7.562;2023-08-31T08:50:17;99650.84;;;17.81;100.00
31761;BME280;18335;51.486;7.562;2023-08-31T08:52:45;99653.44;;;17.44;100.00
31761;BME280;18335;51.486;7.562;2023-08-31T08:55:13;99653.69;;;17.43;100.00
31761;BME280;18335;51.486;7.562;2023-08-31T08:57:40;99657.91;;;17.77;100.00
31761;BME280;18335;51.486;7.562;2023-08-31T09:00:08;99662.31;;;17.78;100.00
31761;BME280;18335;51.486;7.562;2023-08-31T09:02:36;99660.97;;;17.87;100.00
31761;BME280;18335;51.486;7.562;2023-08-31T09:05:03;99662.63;;;17.94;100.00
31761;BME280;18335;51.486;7.562;2023-08-31T09:07:30;99660.81;;;18.24;100.00
31761;BME280;18335;51.486;7.562;2023-08-31T09:09:59;99661.16;;;17.92;100.00
31761;BME280;18335;51.486;7.562;2023-08-31T09:12:25;99652.94;;;17.85;100.00
31761;BME280;18335;51.486;7.562;2023-08-31T09:14:59;99661.47;;;17.77;100.00
31761;BME280;18335;51.486;7.562;2023-08-31T09:17:26;99653.28;;;18.32;100.00
31761;BME280;18335;51.486;7.562;2023-08-31T09:20:04;99648.28;;;18.22;100.00
31761;BME280;18335;51.486;7.562;2023-08-31T09:22:32;99657.66;;;18.21;100.00
31761;BME280;18335;51.486;7.562;2023-08-31T09:25:01;99668.09;;;18.37;100.00
31761;BME280;18335;51.486;7.562;2023-08-31T09:27:28;99668.41;;;18.47;100.00
31761;BME280;18335;51.486;7.562;2023-08-31T09:29:56;99667.47;;;18.35;100.00
31761;BME280;18335;51.486;7.562;2023-08-31T09:32:24;99660.59;;;19.10;100.00
31761;BME280;18335;51.486;7.562;2023-08-31T09:34:51;99662.94;;;18.95;100.00
31761;BME280;18335;51.486;7.562;2023-08-31T09:37:17;99664.25;;;18.93;100.00
31761;BME280;18335;51.486;7.562;2023-08-31T09:39:44;99668.91;;;18.62;100.00
31761;BME280;18335;51.486;7.562;2023-08-31T09:42:12;99667.41;;;18.96;100.00
31761;BME280;18335;51.486;7.562;2023-08-31T09:44:43;99670.66;;;18.57;100.00
31761;BME280;18335;51.486;7.562;2023-08-31T09:47:13;99670.72;;;18.87;100.00
31761;BME280;18335;51.486;7.562;2023-08-31T09:49:41;99662.28;;;18.82;100.00
31761;BME280;18335;51.486;7.562;2023-08-31T09:52:09;99662.03;;;19.13;100.00
31761;BME280;18335;51.486;7.562;2023-08-31T09:54:36;99655.22;;;19.68;100.00
31761;BME280;18335;51.486;7.562;2023-08-31T09:57:04;99653.88;;;19.59;100.00
31761;BME280;18335;51.486;7.562;2023-08-31T09:59:33;99646.47;;;19.30;100.00
31761;BME280;18335;51.486;7.562;2023-08-31T10:02:01;99652.06;;;19.23;100.00
31761;BME280;18335;51.486;7.562;2023-08-31T10:04:29;99663.78;;;18.96;100.00
31761;BME280;18335;51.486;7.562;2023-08-31T10:06:57;99651.84;;;19.55;100.00
31761;BME280;18335;51.486;7.562;2023-08-31T10:09:26;99660.34;;;18.82;100.00
31761;BME280;18335;51.486;7.562;2023-08-31T10:11:53;99659.88;;;19.45;100.00
31761;BME280;18335;51.486;7.562;2023-08-31T10:14:21;99663.44;;;19.04;100.00
31761;BME280;18335;51.486;7.562;2023-08-31T10:16:50;99660.53;;;19.58;100.00
31761;BME280;18335;51.486;7.562;2023-08-31T10:19:18;99673.06;;;19.72;100.00
31761;BME280;18335;51.486;7.562;2023-08-31T10:21:45;99659.47;;;20.06;100.00
31761;BME280;18335;51.486;7.562;2023-08-31T10:24:12;99659.97;;;20.26;100.00
31761;BME280;18335;51.486;7.562;2023-08-31T10:26:39;99646.75;;;20.28;100.00
31761;BME280;18335;51.486;7.562;2023-08-31T10:29:06;99655.63;;;20.18;100.00
31761;BME280;18335;51.486;7.562;2023-08-31T10:31:33;99655.38;;;20.31;100.00
31761;BME280;18335;51.486;7.562;2023-08-31T10:34:03;99640.19;;;20.34;100.00
31761;BME280;18335;51.486;7.562;2023-08-31T10:36:38;99640.81;;;19.89;100.00
31761;BME280;18335;51.486;7.562;2023-08-31T10:39:10;99639.84;;;19.72;100.00
31761;BME280;18335;51.486;7.562;2023-08-31T10:41:37;99642.47;;;20.14;100.00
31761;BME280;18335;51.486;7.562;2023-08-31T10:44:18;99644.91;;;20.33;100.00
31761;BME280;18335;51.486;7.562;2023-08-31T10:46:46;99647.91;;;20.09;100.00
31761;BME280;18335;51.486;7.562;2023-08-31T10:49:15;99644.78;;;20.17;100.00
31761;BME280;18335;51.486;7.562;2023-08-31T10:51:44;99637.44;;;20.34;100.00
31761;BME280;18335;51.486;7.562;2023-08-31T10:54:12;99643.59;;;20.36;100.00
31761;BME280;18335;51.486;7.562;2023-08-31T10:57:09;99645.25;;;20.49;100.00
31761;BME280;18335;51.486;7.562;2023-08-31T10:59:43;99650.09;;;20.41;100.00
31761;BME280;18335;51.486;7.562;2023-08-31T11:02:10;99649.13;;;20.24;100.00
31761;BME280;18335;51.486;7.562;2023-08-31T11:04:55;99645.19;;;20.72;100.00
31761;BME280;18335;51.486;7.562;2023-08-31T11:07:26;99655.50;;;20.25;100.00
31761;BME280;18335;51.486;7.562;2023-08-31T11:10:07;99648.28;;;20.35;100.00
31761;BME280;18335;51.486;7.562;2023-08-31T11:12:34;99650.81;;;20.25;100.00
31761;BME280;18335;51.486;7.562;2023-08-31T11:15:00;99645.94;;;20.95;100.00
31761;BME280;18335;51.486;7.562;2023-08-31T11:17:29;99642.91;;;20.69;100.00
31761;BME280;18335;51.486;7.562;2023-08-31T11:19:59;99657.66;;;20.00;100.00
31761;BME280;18335;51.486;7.562;2023-08-31T11:22:27;99647.63;;;20.57;100.00
31761;BME280;18335;51.486;7.562;2023-08-31T11:24:54;99654.66;;;20.24;100.00
31761;BME280;18335;51.486;7.562;2023-08-31T11:27:21;99647.28;;;20.93;100.00
31761;BME280;18335;51.486;7.562;2023-08-31T11:29:48;99646.44;;;20.92;100.00
31761;BME280;18335;51.486;7.562;2023-08-31T11:32:14;99637.59;;;20.67;100.00
31761;BME280;18335;51.486;7.562;2023-08-31T11:34:43;99651.19;;;20.80;100.00
31761;BME280;18335;51.486;7.562;2023-08-31T11:37:12;99644.84;;;20.68;100.00
31761;BME280;18335;51.486;7.562;2023-08-31T11:39:42;99634.81;;;20.67;100.00
31761;BME280;18335;51.486;7.562;2023-08-31T11:42:08;99645.25;;;20.88;100.00
31761;BME280;18335;51.486;7.562;2023-08-31T11:44:35;99635.25;;;21.44;100.00
31761;BME280;18335;51.486;7.562;2023-08-31T11:47:02;99636.38;;;21.03;100.00
31761;BME280;18335;51.486;7.562;2023-08-31T11:49:29;99641.00;;;20.46;100.00
31761;BME280;18335;51.486;7.562;2023-08-31T11:51:56;99643.75;;;20.69;100.00
31761;BME280;18335;51.486;7.562;2023-08-31T11:54:26;99635.34;;;21.21;100.00
31761;BME280;18335;51.486;7.562;2023-08-31T11:56:52;99640.50;;;21.01;100.00
31761;BME280;18335;51.486;7.562;2023-08-31T11:59:19;99626.44;;;20.90;100.00
31761;BME280;18335;51.486;7.562;2023-08-31T12:01:48;99636.16;;;21.05;100.00
31761;BME280;18335;51.486;7.562;2023-08-31T12:04:16;99635.41;;;20.81;100.00
31761;BME280;18335;51.486;7.562;2023-08-31T12:06:46;99631.00;;;21.25;100.00
31761;BME280;18335;51.486;7.562;2023-08-31T12:09:14;99629.16;;;21.02;100.00
31761;BME280;18335;51.486;7.562;2023-08-31T12:11:42;99631.31;;;21.73;100.00
31761;BME280;18335;51.486;7.562;2023-08-31T12:14:20;99641.91;;;21.15;100.00
31761;BME280;18335;51.486;7.562;2023-08-31T12:16:46;99634.25;;;21.67;100.00
31761;BME280;18335;51.486;7.562;2023-08-31T12:19:14;99635.16;;;21.72;100.00
31761;BME280;18335;51.486;7.562;2023-08-31T12:21:42;99630.13;;;21.86;100.00
31761;BME280;18335;51.486;7.562;2023-08-31T12:24:09;99626.16;;;21.32;100.00
31761;BME280;18335;51.486;7.562;2023-08-31T12:26:36;99638.41;;;21.19;100.00
31761;BME280;18335;51.486;7.562;2023-08-31T12:29:04;99630.78;;;20.86;100.00
31761;BME280;18335;51.486;7.562;2023-08-31T12:31:31;99633.13;;;20.78;100.00
31761;BME280;18335;51.486;7.562;2023-08-31T12:33:58;99645.03;;;20.27;100.00
31761;BME280;18335;51.486;7.562;2023-08-31T12:36:25;99643.69;;;21.21;100.00
31761;BME280;18335;51.486;7.562;2023-08-31T12:38:52;99640.31;;;20.90;100.00
31761;BME280;18335;51.486;7.562;2023-08-31T12:41:19;99629.09;;;20.85;100.00
31761;BME280;18335;51.486;7.562;2023-08-31T12:43:45;99633.75;;;20.68;100.00
31761;BME280;18335;51.486;7.562;2023-08-31T12:46:13;99635.03;;;21.06;100.00
31761;BME280;18335;51.486;7.562;2023-08-31T12:48:40;99636.47;;;20.80;100.00
31761;BME280;18335;51.486;7.562;2023-08-31T12:51:07;99636.56;;;20.96;100.00
31761;BME280;18335;51.486;7.562;2023-08-31T12:53:37;99646.56;;;20.23;100.00